Time;durP1;ratioP1;P1;durP2;ratioP2;P2;SDS_P1;SDS_P2;PMS_P1;PMS_P2;Temp;Humidity;BMP_temperature;BMP_pressure;BME280_temperature;BME280_humidity;BME280_pressure;Samples;Min_cycle;Max_cycle;Signal;HPM_P1;HPM_P2
2022/08/20 00:00:40;;;;;;;29.50;11.50;;;;;;;18.80;100.00;97932.88;5013200;28;20041;-60
2022/08/20 00:03:19;;;;;;;29.00;10.45;;;;;;;19.14;100.00;97925.06;5013100;28;20060;-59
2022/08/20 00:05:52;;;;;;;31.52;11.20;;;;;;;19.13;100.00;97923.38;5013256;28;20042;-59
2022/08/20 00:08:18;;;;;;;31.10;11.63;;;;;;;19.13;100.00;97918.09;5017723;28;20018;-59
2022/08/20 00:10:45;;;;;;;37.15;12.40;;;;;;;19.03;100.00;97929.38;5014823;28;20033;-59
2022/08/20 00:13:18;;;;;;;31.02;11.93;;;;;;;18.99;100.00;97922.63;5018246;28;20492;-59
2022/08/20 00:15:44;;;;;;;33.83;11.65;;;;;;;18.93;100.00;97917.84;5016068;28;20111;-59
2022/08/20 00:18:10;;;;;;;33.50;12.65;;;;;;;18.74;100.00;97925.44;5016460;28;20025;-59
2022/08/20 00:20:40;;;;;;;36.83;12.18;;;;;;;19.03;100.00;97913.50;5014623;28;20050;-60
2022/08/20 00:23:06;;;;;;;40.40;13.20;;;;;;;18.92;100.00;97915.31;5010867;28;20535;-59
2022/08/20 00:25:31;;;;;;;40.97;13.82;;;;;;;18.82;100.00;97920.44;5014597;28;20626;-59
2022/08/20 00:27:58;;;;;;;35.47;13.90;;;;;;;18.57;100.00;97916.97;5015213;28;20117;-59
2022/08/20 00:30:25;;;;;;;38.80;13.25;;;;;;;18.77;100.00;97922.56;5014738;28;20988;-60
2022/08/20 00:33:08;;;;;;;42.17;13.68;;;;;;;18.99;100.00;97916.53;5016222;28;20034;-58
2022/08/20 00:35:36;;;;;;;37.90;13.38;;;;;;;19.07;100.00;97914.94;5016271;28;20101;-59
2022/08/20 00:38:02;;;;;;;33.70;13.43;;;;;;;18.87;100.00;97923.56;5016106;28;20474;-59
2022/08/20 00:40:35;;;;;;;36.35;13.48;;;;;;;18.99;100.00;97921.81;5015636;28;20164;-59
2022/08/20 00:43:01;;;;;;;;;;;;;;;18.96;100.00;97925.50;5018171;28;20032;-59
2022/08/20 00:45:30;;;;;;;38.08;13.40;;;;;;;18.65;100.00;97930.44;5014513;28;19913;-59
2022/08/20 00:47:56;;;;;;;35.83;13.20;;;;;;;18.88;100.00;97925.25;5016668;28;20399;-59
2022/08/20 00:50:32;;;;;;;29.80;11.65;;;;;;;19.09;100.00;97919.28;5015948;28;20029;-59
2022/08/20 00:52:59;;;;;;;40.08;13.07;;;;;;;18.98;100.00;97915.66;5014129;28;20026;-59
2022/08/20 00:55:25;;;;;;;31.38;11.80;;;;;;;18.63;100.00;97937.63;5015927;28;20033;-58
2022/08/20 00:57:55;;;;;;;35.75;12.80;;;;;;;18.88;100.00;97931.38;5016366;28;20862;-59
2022/08/20 01:00:25;;;;;;;36.33;11.65;;;;;;;18.73;100.00;97932.53;5013843;28;20033;-59
2022/08/20 01:02:51;;;;;;;28.20;11.57;;;;;;;18.81;100.00;97921.41;5011124;28;20064;-59
2022/08/20 01:05:17;;;;;;;32.80;11.77;;;;;;;18.72;100.00;97922.06;5015155;28;20037;-59
2022/08/20 01:07:44;;;;;;;31.73;11.13;;;;;;;18.86;100.00;97919.25;5016974;28;20046;-59
2022/08/20 01:10:15;;;;;;;34.92;9.48;;;;;;;19.07;100.00;97917.59;5014652;28;20077;-59
2022/08/20 01:12:45;;;;;;;30.23;9.80;;;;;;;19.06;100.00;97902.72;5015803;28;20029;-59
2022/08/20 01:15:14;;;;;;;33.75;9.93;;;;;;;19.32;100.00;97902.47;5016498;28;20033;-59
2022/08/20 01:17:44;;;;;;;25.45;9.70;;;;;;;19.12;100.00;97911.13;5015658;28;20025;-59
2022/08/20 01:20:14;;;;;;;36.47;10.90;;;;;;;18.86;100.00;97913.97;5014592;28;20099;-60
2022/08/20 01:25:48;;;;;;;30.45;10.57;;;;;;;18.90;100.00;97907.50;5011815;28;20549;-59
2022/08/20 01:28:17;;;;;;;38.53;11.85;;;;;;;19.01;100.00;97914.59;5014722;28;20108;-59
2022/08/20 01:30:42;;;;;;;29.58;11.48;;;;;;;19.02;100.00;97917.13;5014771;28;20044;-59
2022/08/20 01:33:08;;;;;;;26.83;10.73;;;;;;;19.04;100.00;97920.50;5015073;28;20030;-59
2022/08/20 01:35:38;;;;;;;28.65;11.57;;;;;;;18.83;100.00;97916.84;5014722;28;20073;-59
2022/08/20 01:38:05;;;;;;;34.20;12.05;;;;;;;18.76;100.00;97928.81;5013620;28;20060;-59
2022/08/20 01:41:08;;;;;;;33.28;12.52;;;;;;;18.79;100.00;97920.66;5015357;28;20511;-59
2022/08/20 01:43:33;;;;;;;;;;;;;;;18.95;100.00;97920.34;5014546;28;20030;-59
2022/08/20 01:46:00;;;;;;;23.98;10.20;;;;;;;18.89;100.00;97916.38;5015757;28;20365;-59
2022/08/20 01:48:25;;;;;;;42.03;12.95;;;;;;;18.96;100.00;97911.47;5014582;28;20031;-59
2022/08/20 01:51:03;;;;;;;28.27;11.27;;;;;;;19.01;100.00;97904.84;5014096;28;20045;-60
2022/08/20 01:53:32;;;;;;;42.53;13.57;;;;;;;18.81;100.00;97903.75;5012636;28;20630;-59
2022/08/20 01:56:00;;;;;;;31.10;11.30;;;;;;;19.00;100.00;97900.53;5012303;28;20045;-60
2022/08/20 01:58:28;;;;;;;35.40;11.02;;;;;;;19.14;100.00;97906.56;5014862;28;20017;-59
2022/08/20 02:00:55;;;;;;;31.65;10.93;;;;;;;19.12;100.00;97905.84;5010918;28;20117;-59
2022/08/20 02:03:20;;;;;;;35.67;12.90;;;;;;;18.85;100.00;97920.19;5011203;28;20559;-59
2022/08/20 02:05:46;;;;;;;33.80;12.60;;;;;;;18.81;100.00;97918.75;5013250;28;20045;-59
2022/08/20 02:08:11;;;;;;;35.45;13.02;;;;;;;18.69;100.00;97926.63;5012911;28;20018;-59
2022/08/20 02:10:36;;;;;;;38.72;13.68;;;;;;;18.75;100.00;97929.75;5015653;28;20180;-59
2022/08/20 02:13:04;;;;;;;34.63;12.77;;;;;;;18.69;100.00;97921.34;5013762;28;20026;-61
2022/08/20 02:15:29;;;;;;;34.40;13.18;;;;;;;18.55;100.00;97926.81;5014519;28;20380;-59
2022/08/20 02:17:56;;;;;;;33.72;12.88;;;;;;;18.69;100.00;97931.91;5020164;28;20033;-60
2022/08/20 02:20:27;;;;;;;33.60;13.15;;;;;;;18.69;100.00;97926.63;5012576;28;20563;-60
2022/08/20 02:22:56;;;;;;;36.20;14.38;;;;;;;18.84;100.00;97908.81;5015699;28;20120;-60
2022/08/20 02:25:25;;;;;;;31.77;12.98;;;;;;;18.87;100.00;97910.34;5013262;28;20032;-60
2022/08/20 02:27:53;;;;;;;41.58;13.02;;;;;;;19.02;100.00;97914.47;5013810;28;20032;-60
2022/08/20 02:30:41;;;;;;;28.13;9.07;;;;;;;19.53;100.00;97901.75;5010405;28;20026;-60
2022/08/20 02:33:10;;;;;;;33.33;12.88;;;;;;;18.65;100.00;97917.22;5013690;28;20036;-59
2022/08/20 02:35:38;;;;;;;36.85;12.95;;;;;;;18.61;100.00;97934.28;5015282;28;20037;-60
2022/08/20 02:38:03;;;;;;;40.45;13.43;;;;;;;18.84;100.00;97926.47;5012562;28;20037;-61
2022/08/20 02:40:30;;;;;;;32.72;12.77;;;;;;;18.93;100.00;97915.19;5014948;28;20095;-60
2022/08/20 02:42:56;;;;;;;33.53;10.93;;;;;;;19.22;100.00;97912.91;5013303;28;20017;-60
2022/08/20 02:45:23;;;;;;;32.88;12.80;;;;;;;19.11;100.00;97920.00;5012579;28;20028;-60
2022/08/20 02:47:51;;;;;;;32.45;12.30;;;;;;;19.06;100.00;97913.28;5012350;28;20033;-60
2022/08/20 02:50:19;;;;;;;34.70;12.95;;;;;;;18.66;100.00;97923.38;5014932;28;20041;-60
2022/08/20 02:52:44;;;;;;;34.15;13.30;;;;;;;18.72;100.00;97924.72;5012122;28;21047;-60
2022/08/20 02:55:11;;;;;;;42.85;13.77;;;;;;;18.88;100.00;97919.97;5010665;28;20042;-59
2022/08/20 02:57:37;;;;;;;34.83;13.82;;;;;;;18.81;100.00;97924.03;5014891;28;20029;-60
2022/08/20 03:00:18;;;;;;;44.80;13.52;;;;;;;18.87;100.00;97913.81;5013516;28;20028;-60
2022/08/20 03:02:44;;;;;;;38.50;14.52;;;;;;;18.61;100.00;97923.72;5014295;28;20041;-60
2022/08/20 03:05:11;;;;;;;43.05;15.02;;;;;;;18.57;100.00;97918.78;5014173;28;20172;-60
2022/08/20 03:07:58;;;;;;;45.75;14.25;;;;;;;18.85;100.00;97921.03;5012459;28;20029;-60
2022/08/20 03:10:26;;;;;;;31.50;13.18;;;;;;;18.92;100.00;97910.84;5011264;28;20577;-60
2022/08/20 03:12:51;;;;;;;32.42;13.25;;;;;;;19.01;100.00;97910.16;5015268;28;20076;-60
2022/08/20 03:15:17;;;;;;;40.20;12.63;;;;;;;19.10;100.00;97907.72;5012885;28;20064;-60
2022/08/20 03:17:44;;;;;;;34.70;12.93;;;;;;;18.88;100.00;97898.84;5012893;28;20040;-60
2022/08/20 03:20:10;;;;;;;45.20;15.10;;;;;;;18.87;100.00;97908.53;5012012;28;20030;-60
2022/08/20 03:22:35;;;;;;;37.53;13.60;;;;;;;18.75;100.00;97909.47;5014747;28;20021;-60
2022/08/20 03:25:01;;;;;;;38.00;13.13;;;;;;;18.68;100.00;97911.72;5011704;28;20025;-60
2022/08/20 03:27:26;;;;;;;40.65;13.20;;;;;;;18.75;100.00;97909.47;5015225;28;20030;-61
2022/08/20 03:29:51;;;;;;;36.42;13.32;;;;;;;18.83;100.00;97906.28;5013422;28;20459;-60
2022/08/20 03:32:17;;;;;;;33.08;10.98;;;;;;;19.25;100.00;97903.91;5012699;28;20341;-60
2022/08/20 03:34:42;;;;;;;32.22;13.27;;;;;;;19.03;100.00;97902.09;5014395;28;20037;-60
2022/08/20 03:37:10;;;;;;;33.28;12.73;;;;;;;18.99;100.00;97906.78;5013376;28;20059;-60
2022/08/20 03:39:36;;;;;;;35.47;12.52;;;;;;;19.11;100.00;97909.44;5012798;28;20484;-59
2022/08/20 03:42:01;;;;;;;31.10;12.10;;;;;;;18.90;100.00;97917.22;5017483;28;20499;-60
2022/08/20 03:44:27;;;;;;;42.17;15.00;;;;;;;18.77;100.00;97923.41;5017089;28;20039;-60
2022/08/20 03:46:53;;;;;;;35.65;13.38;;;;;;;18.74;100.00;97936.00;5013882;28;20559;-59
2022/08/20 03:49:18;;;;;;;34.45;13.27;;;;;;;18.59;100.00;97933.53;5016056;28;20048;-60
2022/08/20 03:51:44;;;;;;;32.40;13.05;;;;;;;18.71;100.00;97944.16;5016829;28;20463;-61
2022/08/20 03:54:09;;;;;;;29.13;12.18;;;;;;;18.76;100.00;97944.66;5019011;28;20029;-60
2022/08/20 03:56:34;;;;;;;33.28;11.85;;;;;;;19.00;100.00;97934.88;5017219;28;20052;-60
2022/08/20 03:59:00;;;;;;;33.30;13.45;;;;;;;18.63;100.00;97940.28;5015989;28;20033;-61
2022/08/20 04:01:25;;;;;;;32.63;12.32;;;;;;;18.68;100.00;97948.72;5015716;28;20072;-59
2022/08/20 04:03:51;;;;;;;30.15;12.13;;;;;;;18.72;100.00;97946.69;5016621;28;20153;-61
2022/08/20 04:06:17;;;;;;;32.33;12.48;;;;;;;18.73;100.00;97944.88;5017826;28;20053;-60
2022/08/20 04:08:42;;;;;;;36.60;13.80;;;;;;;18.53;100.00;97952.50;5015449;28;20412;-60
2022/08/20 04:11:08;;;;;;;28.98;12.00;;;;;;;18.80;100.00;97949.59;5014892;28;20045;-60
2022/08/20 04:13:33;;;;;;;37.90;14.00;;;;;;;18.79;100.00;97957.63;5017883;28;20029;-60
2022/08/20 04:16:07;;;;;;;29.65;11.70;;;;;;;18.98;100.00;97952.66;5015816;28;20034;-60
2022/08/20 04:18:35;;;;;;;41.28;14.68;;;;;;;18.83;100.00;97952.03;5014750;28;20107;-60
2022/08/20 04:21:01;;;;;;;32.72;12.57;;;;;;;18.95;100.00;97947.63;5016469;28;20041;-61
2022/08/20 04:23:28;;;;;;;35.90;12.75;;;;;;;18.90;100.00;97943.66;5016412;28;20025;-61
2022/08/20 04:25:54;;;;;;;35.83;14.18;;;;;;;19.04;100.00;97941.63;5016927;28;20091;-60
2022/08/20 04:28:25;;;;;;;34.53;13.05;;;;;;;18.86;100.00;97953.63;5019024;28;20024;-61
2022/08/20 04:30:52;;;;;;;31.92;10.93;;;;;;;18.71;100.00;97954.72;5017023;28;20048;-61
2022/08/20 04:33:19;;;;;;;32.83;10.88;;;;;;;18.95;100.00;97960.84;5016042;28;20032;-60
2022/08/20 04:35:44;;;;;;;29.00;11.65;;;;;;;18.86;100.00;97958.91;5016681;28;20489;-61
2022/08/20 04:38:14;;;;;;;39.65;12.80;;;;;;;18.62;100.00;97961.56;5017272;28;20037;-60
2022/08/20 04:40:52;;;;;;;24.58;10.30;;;;;;;18.86;100.00;97953.63;5011829;28;20038;-62
2022/08/20 04:43:24;;;;;;;25.83;11.23;;;;;;;18.72;100.00;97962.53;5017409;28;20087;-61
2022/08/20 04:45:50;;;;;;;;;;;;;;;18.96;100.00;97959.88;5016535;28;20438;-61
2022/08/20 04:48:17;;;;;;;37.00;13.00;;;;;;;18.29;100.00;97977.13;5015677;28;19944;-62
2022/08/20 04:50:45;;;;;;;34.13;12.18;;;;;;;18.57;100.00;97976.91;5017716;28;20822;-60
2022/08/20 04:53:12;;;;;;;38.92;13.90;;;;;;;18.77;100.00;97975.41;5013475;28;20413;-62
2022/08/20 04:55:41;;;;;;;35.75;12.98;;;;;;;18.87;100.00;97977.25;5017178;28;20125;-60
2022/08/20 04:58:10;;;;;;;37.15;13.10;;;;;;;18.86;100.00;97982.69;5015952;28;20029;-60
2022/08/20 05:00:36;;;;;;;34.63;13.73;;;;;;;18.77;100.00;97970.13;5015846;28;20461;-60
2022/08/20 05:03:01;;;;;;;36.15;13.38;;;;;;;18.90;100.00;97964.78;5017855;28;20576;-62
2022/08/20 05:05:27;;;;;;;27.02;10.48;;;;;;;19.06;100.00;97960.88;5015358;28;20097;-59
2022/08/20 05:07:54;;;;;;;30.20;12.93;;;;;;;19.04;100.00;97967.22;5016675;28;20021;-60
2022/08/20 05:10:19;;;;;;;36.05;12.82;;;;;;;19.15;100.00;97961.09;5016911;28;20104;-59
2022/08/20 05:12:44;;;;;;;30.77;12.45;;;;;;;19.15;100.00;97950.53;5016196;28;20104;-61
2022/08/20 05:15:11;;;;;;;41.00;14.20;;;;;;;19.25;100.00;97959.44;5021057;28;20022;-61
2022/08/20 05:17:41;;;;;;;29.38;12.45;;;;;;;19.11;100.00;97965.78;5016471;28;20029;-60
2022/08/20 05:20:09;;;;;;;31.90;12.02;;;;;;;19.02;100.00;97977.91;5015097;28;20021;-60
2022/08/20 05:22:34;;;;;;;34.42;12.93;;;;;;;19.09;100.00;97972.16;5016017;28;20083;-59
2022/08/20 05:25:00;;;;;;;31.15;12.18;;;;;;;18.90;100.00;97981.47;5014583;28;20455;-60
2022/08/20 05:27:27;;;;;;;32.55;12.57;;;;;;;18.97;100.00;97977.41;5014707;28;20037;-60
2022/08/20 05:29:59;;;;;;;26.60;10.43;;;;;;;19.33;100.00;97972.91;5017891;28;20025;-60
2022/08/20 05:32:24;;;;;;;36.67;12.13;;;;;;;19.16;100.00;97976.03;5014869;28;20897;-60
2022/08/20 05:34:49;;;;;;;24.98;10.60;;;;;;;19.05;100.00;97976.84;5016496;28;20610;-60
2022/08/20 05:37:16;;;;;;;28.75;11.07;;;;;;;19.16;100.00;97961.00;5014346;28;20101;-60
2022/08/20 05:39:42;;;;;;;25.30;10.90;;;;;;;19.18;100.00;97963.53;5018101;28;20072;-60
2022/08/20 05:42:08;;;;;;;27.75;12.13;;;;;;;19.24;100.00;97963.91;5014384;28;20092;-59
2022/08/20 05:44:35;;;;;;;35.38;12.43;;;;;;;19.09;100.00;97953.66;5017309;28;20136;-59
2022/08/20 05:47:01;;;;;;;26.33;10.75;;;;;;;19.32;100.00;97960.66;5015397;28;20086;-60
2022/08/20 05:49:27;;;;;;;32.55;11.38;;;;;;;19.28;100.00;97964.50;5015353;28;20017;-59
2022/08/20 05:51:52;;;;;;;28.90;11.15;;;;;;;19.35;100.00;97947.19;5015602;28;20111;-60
2022/08/20 05:54:18;;;;;;;28.92;11.27;;;;;;;19.42;100.00;97961.63;5015318;28;20113;-60
2022/08/20 05:56:43;;;;;;;27.67;11.52;;;;;;;19.44;100.00;97959.69;5016102;28;20115;-59
2022/08/20 05:59:09;;;;;;;26.85;11.45;;;;;;;19.25;100.00;97960.28;5016276;28;20031;-60
2022/08/20 06:01:37;;;;;;;35.15;12.48;;;;;;;19.43;100.00;97971.25;5013475;28;20069;-60
2022/08/20 06:06:49;;;;;;;38.72;11.13;;;;;;;19.57;100.00;97985.19;5014537;28;20032;-60
2022/08/20 06:09:16;;;;;;;28.88;10.95;;;;;;;19.57;100.00;97982.53;5013149;28;20021;-62
2022/08/20 06:11:41;;;;;;;33.53;10.77;;;;;;;19.51;100.00;97967.16;5012956;28;20437;-60
2022/08/20 06:14:07;;;;;;;27.20;10.75;;;;;;;19.53;100.00;97981.09;5017005;28;20473;-62
2022/08/20 06:16:32;;;;;;;25.08;9.73;;;;;;;19.71;100.00;97978.84;5014153;28;20045;-60
2022/08/20 06:18:58;;;;;;;33.15;12.35;;;;;;;19.63;100.00;97976.78;5015332;28;20026;-61
2022/08/20 06:21:23;;;;;;;24.70;11.20;;;;;;;19.50;100.00;97979.56;5012899;28;20037;-62
2022/08/20 06:23:48;;;;;;;33.45;11.93;;;;;;;19.51;100.00;97991.81;5014128;28;20575;-60
2022/08/20 06:26:14;;;;;;;25.48;10.82;;;;;;;19.70;100.00;97983.25;5014606;28;20701;-61
2022/08/20 06:28:40;;;;;;;29.67;10.38;;;;;;;19.46;100.00;97993.97;5014456;28;20602;-60
2022/08/20 06:31:06;;;;;;;31.00;10.85;;;;;;;19.83;100.00;97991.97;5014480;28;20543;-60
2022/08/20 06:33:31;;;;;;;24.90;10.77;;;;;;;19.74;100.00;97990.06;5015305;28;20497;-61
2022/08/20 06:35:57;;;;;;;36.00;11.60;;;;;;;19.65;100.00;97996.03;5013169;28;20543;-60
2022/08/20 06:38:22;;;;;;;24.00;9.98;;;;;;;19.91;100.00;97994.00;5016140;28;20025;-60
2022/08/20 06:40:47;;;;;;;26.88;11.25;;;;;;;19.82;100.00;97992.91;5014214;28;21039;-59
2022/08/20 06:43:13;;;;;;;27.55;11.07;;;;;;;19.73;100.00;98001.59;5013844;28;20021;-61
2022/08/20 06:45:39;;;;;;;26.85;10.35;;;;;;;20.01;100.00;97994.09;5015913;28;20836;-60
2022/08/20 06:48:10;;;;;;;28.02;9.50;;;;;;;20.23;100.00;97980.81;5013597;28;20100;-60
2022/08/20 06:50:42;;;;;;;30.38;11.23;;;;;;;20.15;100.00;97991.19;5013900;28;20072;-60
2022/08/20 06:53:09;;;;;;;30.35;10.98;;;;;;;20.12;100.00;97995.91;5013070;28;20029;-60
2022/08/20 06:55:37;;;;;;;32.85;12.20;;;;;;;19.86;100.00;97993.50;5014417;28;20092;-59
2022/08/20 06:58:06;;;;;;;31.00;12.13;;;;;;;20.21;100.00;97989.84;5014386;28;20018;-60
2022/08/20 07:00:33;;;;;;;24.45;11.07;;;;;;;20.44;100.00;97988.00;5013409;28;20049;-61
2022/08/20 07:02:59;;;;;;;25.10;11.32;;;;;;;20.40;100.00;97983.91;5013510;28;20022;-61
2022/08/20 07:05:32;;;;;;;28.50;11.32;;;;;;;20.49;100.00;97977.84;5013516;28;20517;-61
2022/08/20 07:07:58;;;;;;;26.73;12.43;;;;;;;20.71;100.00;97981.41;5035147;28;20017;-61
2022/08/20 07:10:24;;;;;;;32.63;13.70;;;;;;;20.93;100.00;97976.00;5013978;28;20037;-61
2022/08/20 07:12:50;;;;;;;26.58;13.32;;;;;;;20.95;100.00;97974.09;5014825;28;20022;-62
2022/08/20 07:15:17;;;;;;;33.13;12.88;;;;;;;20.92;100.00;97976.97;5011466;28;20026;-61
2022/08/20 07:17:48;;;;;;;38.20;12.90;;;;;;;21.03;100.00;97983.22;5013710;28;20446;-63
2022/08/20 07:20:14;;;;;;;31.45;12.38;;;;;;;21.91;100.00;97987.19;5013243;28;20026;-60
2022/08/20 07:22:40;;;;;;;28.48;12.80;;;;;;;21.46;100.00;97979.56;5013969;28;20057;-61
2022/08/20 07:25:08;;;;;;;33.00;15.00;;;;;;;21.42;100.00;97980.78;5012024;28;20060;-60
2022/08/20 07:27:33;;;;;;;32.05;14.25;;;;;;;21.36;100.00;97980.34;5012130;28;20033;-60
2022/08/20 07:32:44;;;;;;;41.90;16.42;;;;;;;20.53;100.00;98011.09;5013858;28;20223;-61
2022/08/20 07:35:13;;;;;;;34.45;15.88;;;;;;;21.08;100.00;98004.84;5011921;28;20116;-62
2022/08/20 07:37:45;;;;;;;45.55;16.50;;;;;;;21.11;100.00;98004.59;5012564;28;20037;-60
2022/08/20 07:40:13;;;;;;;45.63;17.85;;;;;;;20.77;100.00;98002.13;5011731;28;20744;-61
2022/08/20 07:42:39;;;;;;;43.72;17.00;;;;;;;21.28;100.00;97996.03;5013173;28;20053;-60
2022/08/20 07:45:09;;;;;;;31.33;15.07;;;;;;;21.26;100.00;97991.84;5014409;28;20033;-60
2022/08/20 07:47:35;;;;;;;37.30;16.63;;;;;;;21.42;100.00;97994.88;5010288;28;20639;-60
2022/08/20 07:50:01;;;;;;;35.20;15.18;;;;;;;21.69;100.00;97993.53;5013657;28;20025;-60
2022/08/20 07:52:27;;;;;;;25.73;12.20;;;;;;;22.41;100.00;97979.19;5012047;28;20459;-60
2022/08/20 07:54:52;;;;;;;33.05;15.98;;;;;;;22.14;100.00;97987.78;5013406;28;20080;-61
2022/08/20 07:57:17;;;;;;;38.83;17.40;;;;;;;22.09;100.00;97982.91;5012674;28;20117;-62
2022/08/20 07:59:45;;;;;;;34.88;16.60;;;;;;;22.59;100.00;97978.50;5012744;28;20031;-60
2022/08/20 08:02:11;;;;;;;30.45;16.10;;;;;;;22.20;100.00;97975.75;5011838;28;20405;-60
2022/08/20 08:04:37;;;;;;;35.08;17.08;;;;;;;22.58;100.00;97979.50;5010606;28;20040;-60
2022/08/20 08:07:03;;;;;;;29.67;14.80;;;;;;;23.00;100.00;97977.38;5010722;28;20025;-62
2022/08/20 08:09:28;;;;;;;30.52;16.48;;;;;;;22.52;100.00;97971.09;5014732;28;20029;-60
2022/08/20 08:11:57;;;;;;;36.78;17.27;;;;;;;23.05;100.00;97971.66;5010693;28;20069;-60
2022/08/20 08:14:27;;;;;;;30.02;15.13;;;;;;;22.79;100.00;97977.53;5014831;28;20024;-62
2022/08/20 08:17:00;;;;;;;37.55;16.70;;;;;;;22.37;100.00;97988.44;5012085;28;20124;-60
2022/08/20 08:19:33;;;;;;;31.15;16.27;;;;;;;22.13;100.00;98002.06;5014120;28;20033;-60
2022/08/20 08:21:59;;;;;;;60.22;19.33;;;;;;;22.31;100.00;97999.59;5006637;28;20037;-60
2022/08/20 08:24:24;;;;;;;35.78;17.33;;;;;;;22.27;100.00;98004.34;5008851;28;20036;-60
2022/08/20 08:26:51;;;;;;;35.00;16.65;;;;;;;21.92;100.00;98010.09;5007068;28;20033;-59
2022/08/20 08:29:17;;;;;;;35.03;17.42;;;;;;;21.99;100.00;98021.03;5012670;28;20053;-60
2022/08/20 08:31:42;;;;;;;36.38;16.75;;;;;;;21.94;100.00;98005.47;5011269;28;20120;-63
2022/08/20 08:34:08;;;;;;;38.72;17.30;;;;;;;22.19;100.00;98001.50;5014129;28;20034;-63
2022/08/20 08:36:34;;;;;;;31.63;16.23;;;;;;;22.14;100.00;98004.56;5011890;28;20135;-63
2022/08/20 08:38:59;;;;;;;38.97;16.95;;;;;;;21.53;100.00;98020.53;5010226;28;20044;-60
2022/08/20 08:41:30;;;;;;;30.65;15.38;;;;;;;21.94;100.00;98008.97;5015750;28;20044;-62
2022/08/20 08:44:13;;;;;;;39.08;17.38;;;;;;;21.91;100.00;98011.91;5014084;28;20052;-61
2022/08/20 08:46:48;;;;;;;32.47;16.27;;;;;;;21.96;100.00;98011.47;5013629;28;20397;-60
2022/08/20 08:49:17;;;;;;;48.33;18.20;;;;;;;21.99;100.00;98016.53;5010438;28;20025;-59
2022/08/20 08:51:47;;;;;;;47.83;17.77;;;;;;;22.28;100.00;98008.69;5010793;28;20041;-59
2022/08/20 08:54:23;;;;;;;51.85;19.17;;;;;;;21.75;100.00;98025.66;5010599;28;20571;-59
2022/08/20 08:56:50;;;;;;;31.52;17.30;;;;;;;22.00;100.00;98031.50;5013796;28;20531;-60
2022/08/20 08:59:16;;;;;;;42.17;16.83;;;;;;;22.17;100.00;98018.56;5013438;28;20025;-60
2022/08/20 09:01:45;;;;;;;38.25;17.20;;;;;;;22.35;100.00;98018.75;5013433;28;20034;-60
2022/08/20 09:04:12;;;;;;;35.90;16.55;;;;;;;22.28;100.00;98005.19;5020695;28;20029;-61
2022/08/20 09:06:39;;;;;;;35.67;16.75;;;;;;;22.64;100.00;98016.97;5016280;28;20455;-60
2022/08/20 09:09:08;;;;;;;36.47;16.10;;;;;;;22.28;100.00;98021.13;5013626;28;20018;-60
2022/08/20 09:11:49;;;;;;;33.17;17.23;;;;;;;22.50;100.00;98015.56;5017110;28;20042;-60
2022/08/20 09:14:14;;;;;;;36.72;14.85;;;;;;;22.85;100.00;98008.06;5016994;28;20032;-60
2022/08/20 09:16:39;;;;;;;29.13;14.00;;;;;;;22.78;100.00;98014.91;5014888;28;20037;-60
2022/08/20 09:19:05;;;;;;;26.65;14.60;;;;;;;22.62;100.00;98012.78;5015658;28;20028;-60
2022/08/20 09:21:30;;;;;;;33.85;15.73;;;;;;;22.43;100.00;98024.25;5014326;28;20481;-60
2022/08/20 09:23:55;;;;;;;34.05;15.60;;;;;;;22.43;100.00;98011.78;5015881;28;20124;-60
2022/08/20 09:26:21;;;;;;;29.58;14.40;;;;;;;22.46;100.00;98014.19;5015002;28;20061;-63
2022/08/20 09:28:46;;;;;;;33.22;16.40;;;;;;;22.51;100.00;98032.34;5015440;28;20101;-61
2022/08/20 09:31:11;;;;;;;31.27;16.58;;;;;;;22.64;100.00;98021.47;5015285;28;20408;-60
2022/08/20 09:33:37;;;;;;;36.55;16.50;;;;;;;22.58;100.00;98027.34;5015719;28;20106;-60
2022/08/20 09:36:02;;;;;;;32.40;16.75;;;;;;;22.42;100.00;98028.69;5014758;28;20069;-60
2022/08/20 09:38:28;;;;;;;28.95;15.82;;;;;;;22.52;100.00;98023.41;5014939;28;20061;-61
2022/08/20 09:40:54;;;;;;;31.55;16.67;;;;;;;22.82;100.00;98011.81;5014267;28;20043;-60
2022/08/20 09:43:19;;;;;;;31.00;15.80;;;;;;;22.85;100.00;98003.56;5036788;28;20038;-60
2022/08/20 09:45:45;;;;;;;36.97;16.77;;;;;;;22.72;100.00;98021.63;5012188;28;20065;-62
2022/08/20 09:48:10;;;;;;;30.73;15.98;;;;;;;22.50;100.00;98034.19;5017818;28;20431;-61
2022/08/20 09:50:39;;;;;;;26.88;14.27;;;;;;;22.81;100.00;98018.13;5014387;28;20045;-60
2022/08/20 09:53:05;;;;;;;28.60;16.48;;;;;;;23.06;100.00;98018.56;5014628;28;20026;-61
2022/08/20 09:55:43;;;;;;;24.63;14.32;;;;;;;22.94;100.00;98023.16;5015000;28;20043;-60
2022/08/20 09:58:21;;;;;;;27.20;13.07;;;;;;;23.72;100.00;98007.06;5015696;28;20028;-61
2022/08/20 10:00:47;;;;;;;27.23;15.27;;;;;;;23.07;100.00;98006.94;5013977;28;20030;-60
2022/08/20 10:03:13;;;;;;;28.67;14.75;;;;;;;23.07;100.00;98007.78;5015806;28;20017;-60
2022/08/20 10:05:38;;;;;;;29.70;15.32;;;;;;;23.56;100.00;98012.97;5014117;28;20049;-60
2022/08/20 10:08:06;;;;;;;28.30;15.50;;;;;;;23.19;100.00;98016.44;5014422;28;20555;-60
2022/08/20 10:10:31;;;;;;;26.52;14.25;;;;;;;23.19;100.00;98011.09;5013028;28;20051;-61
2022/08/20 10:12:57;;;;;;;31.25;15.45;;;;;;;23.59;100.00;98018.03;5015875;28;20029;-61
2022/08/20 10:15:22;;;;;;;23.73;14.60;;;;;;;23.54;100.00;98004.31;5012537;28;20113;-61
2022/08/20 10:17:47;;;;;;;28.63;14.90;;;;;;;23.52;100.00;98022.25;5014380;28;20030;-61
2022/08/20 10:20:13;;;;;;;30.50;15.75;;;;;;;23.28;100.00;98020.06;5014688;28;20339;-60
2022/08/20 10:22:39;;;;;;;28.00;15.13;;;;;;;23.46;100.00;98023.66;5017157;28;20037;-60
2022/08/20 10:25:05;;;;;;;31.02;15.85;;;;;;;23.43;100.00;98025.78;5014541;28;20416;-61
2022/08/20 10:27:31;;;;;;;26.98;14.73;;;;;;;23.27;100.00;98019.22;5016384;28;20033;-61
2022/08/20 10:29:56;;;;;;;32.50;16.05;;;;;;;23.02;100.00;98011.81;5015119;28;20060;-60
2022/08/20 10:32:22;;;;;;;33.25;15.95;;;;;;;22.99;100.00;98009.44;5013614;28;20068;-63
2022/08/20 10:34:47;;;;;;;30.55;15.57;;;;;;;23.83;100.00;98008.72;5012393;28;20040;-62
2022/08/20 10:37:18;;;;;;;28.05;13.88;;;;;;;23.81;100.00;98003.53;5014413;28;20066;-61
2022/08/20 10:39:45;;;;;;;31.70;14.85;;;;;;;24.41;100.00;98000.44;5015056;28;20115;-61
2022/08/20 10:42:10;;;;;;;27.25;13.70;;;;;;;24.08;100.00;98006.38;5014076;28;20042;-61
2022/08/20 10:44:36;;;;;;;30.02;15.80;;;;;;;23.85;100.00;98002.25;5013277;28;20490;-60
2022/08/20 10:47:20;;;;;;;43.10;16.58;;;;;;;24.53;100.00;97994.91;5008944;28;20069;-61
2022/08/20 10:49:47;;;;;;;32.00;14.75;;;;;;;24.52;100.00;97982.53;5010264;28;20037;-59
2022/08/20 10:52:13;;;;;;;38.55;16.42;;;;;;;24.13;100.00;97994.25;5009572;28;20095;-60
2022/08/20 10:54:41;;;;;;;29.77;13.88;;;;;;;24.91;100.00;97987.59;5012089;28;20033;-59
2022/08/20 10:57:12;;;;;;;30.33;13.18;;;;;;;24.95;100.00;97980.94;5013320;28;20037;-60
2022/08/20 10:59:39;;;;;;;34.78;13.98;;;;;;;26.00;100.00;97979.13;5010688;28;20034;-59
2022/08/20 11:02:04;;;;;;;37.70;14.25;;;;;;;26.16;100.00;97967.66;5009916;28;20049;-59
2022/08/20 11:04:30;;;;;;;34.58;14.68;;;;;;;25.45;100.00;97968.81;5008584;28;20056;-60
2022/08/20 11:06:55;;;;;;;35.88;14.35;;;;;;;26.07;100.00;97974.81;5011300;28;20049;-59
2022/08/20 11:09:20;;;;;;;29.92;13.50;;;;;;;25.53;100.00;97972.38;5012257;28;20055;-61
2022/08/20 11:11:46;;;;;;;34.63;15.07;;;;;;;24.84;100.00;97986.53;5010446;28;20578;-59
2022/08/20 11:14:11;;;;;;;32.17;13.73;;;;;;;24.46;100.00;97986.63;5010936;28;20057;-58
2022/08/20 11:16:36;;;;;;;36.78;14.57;;;;;;;24.11;100.00;98006.06;5011317;28;20112;-59
2022/08/20 11:19:02;;;;;;;31.35;14.45;;;;;;;24.54;100.00;97999.25;5010373;28;20757;-60